Time;durP1;ratioP1;P1;durP2;ratioP2;P2;SDS_P1;SDS_P2;PMS_P1;PMS_P2;Temp;Humidity;BMP_temperature;BMP_pressure;BME280_temperature;BME280_humidity;BME280_pressure;Samples;Min_cycle;Max_cycle;Signal;HPM_P1;HPM_P2
2023/10/06 00:01:04;;;;;;;7.45;3.75;;;14.20;99.90;;;;;;5092461;28;20053;-69
2023/10/06 00:03:31;;;;;;;8.13;3.17;;;14.20;99.90;;;;;;5069801;28;20056;-69
2023/10/06 00:05:58;;;;;;;8.32;3.38;;;14.20;99.90;;;;;;5091690;28;20408;-69
2023/10/06 00:08:32;;;;;;;7.03;3.40;;;14.20;99.90;;;;;;5074106;28;20056;-69
2023/10/06 00:11:10;;;;;;;5.68;3.05;;;14.20;99.90;;;;;;5074257;28;20116;-69
2023/10/06 00:13:37;;;;;;;14.07;3.78;;;14.20;99.90;;;;;;5073420;28;20125;-69
2023/10/06 00:16:07;;;;;;;9.57;3.20;;;14.20;99.90;;;;;;5092005;28;20393;-70
2023/10/06 00:18:36;;;;;;;10.98;3.67;;;14.20;99.90;;;;;;5073761;28;20131;-70
2023/10/06 00:21:13;;;;;;;10.65;3.15;;;14.20;99.90;;;;;;5072989;28;20078;-69
2023/10/06 00:23:43;;;;;;;11.80;3.35;;;14.20;99.90;;;;;;5073749;28;20106;-69
2023/10/06 00:26:12;;;;;;;8.82;3.42;;;14.10;99.90;;;;;;5073680;28;20090;-70
2023/10/06 00:28:39;;;;;;;6.80;3.40;;;14.10;99.90;;;;;;5073334;28;20411;-71
2023/10/06 00:31:08;;;;;;;10.23;3.53;;;14.10;99.90;;;;;;5073849;28;20047;-70
2023/10/06 00:33:37;;;;;;;11.38;3.60;;;14.10;99.90;;;;;;5073974;28;20079;-70
2023/10/06 00:36:11;;;;;;;15.68;4.47;;;14.00;99.90;;;;;;5068988;28;20051;-70
2023/10/06 00:38:38;;;;;;;9.23;3.50;;;13.90;99.90;;;;;;5073736;28;20559;-70
2023/10/06 00:41:06;;;;;;;12.57;4.70;;;14.00;99.90;;;;;;5073393;28;20052;-70
2023/10/06 00:43:36;;;;;;;8.45;3.78;;;14.00;99.90;;;;;;5073999;28;20089;-70
2023/10/06 00:46:06;;;;;;;7.75;4.10;;;14.00;99.90;;;;;;5073480;28;20054;-70
2023/10/06 00:48:38;;;;;;;8.07;3.53;;;14.00;99.90;;;;;;5073380;28;20040;-70
2023/10/06 00:51:06;;;;;;;11.75;4.35;;;14.10;99.90;;;;;;5070536;28;20040;-70
2023/10/06 00:53:33;;;;;;;6.28;3.90;;;14.10;99.90;;;;;;5073429;28;20490;-70
2023/10/06 00:56:10;;;;;;;12.82;4.35;;;14.10;99.90;;;;;;5073251;28;20051;-70
2023/10/06 00:58:41;;;;;;;10.13;3.72;;;14.20;99.90;;;;;;5073747;28;20059;-69
2023/10/06 01:01:08;;;;;;;14.75;4.20;;;14.20;99.90;;;;;;5069429;28;20381;-70
2023/10/06 01:03:41;;;;;;;18.08;4.03;;;14.20;99.90;;;;;;5073045;28;20048;-69
2023/10/06 01:06:12;;;;;;;10.05;3.92;;;14.20;99.90;;;;;;5073632;28;20483;-70
2023/10/06 01:08:40;;;;;;;14.00;3.95;;;14.30;99.90;;;;;;5071104;28;20048;-70
2023/10/06 01:11:12;;;;;;;12.00;4.55;;;14.30;99.90;;;;;;5076256;28;20097;-70
2023/10/06 01:13:53;;;;;;;10.95;3.72;;;14.30;99.90;;;;;;5076864;28;20545;-69
2023/10/06 01:16:23;;;;;;;;;;;14.30;99.90;;;;;;5076723;28;20052;-69
2023/10/06 01:18:52;;;;;;;8.45;3.25;;;14.30;99.90;;;;;;5076527;28;19978;-70
2023/10/06 01:21:28;;;;;;;7.65;3.13;;;14.30;99.90;;;;;;5076827;28;20140;-69
2023/10/06 01:24:03;;;;;;;11.55;4.20;;;14.30;99.90;;;;;;5076488;28;20044;-69
2023/10/06 01:26:30;;;;;;;9.93;3.75;;;14.30;99.90;;;;;;5076652;28;20056;-70
2023/10/06 01:28:57;;;;;;;9.70;3.97;;;14.30;99.90;;;;;;5076731;28;20119;-69
2023/10/06 01:31:24;;;;;;;11.98;4.35;;;14.30;99.90;;;;;;5076040;28;20063;-69
2023/10/06 01:33:51;;;;;;;12.75;4.05;;;14.30;99.90;;;;;;5076564;28;20055;-70
2023/10/06 01:36:22;;;;;;;10.32;4.22;;;14.30;99.90;;;;;;5076694;28;20040;-70
2023/10/06 01:38:49;;;;;;;;;;;14.30;99.90;;;;;;5076333;28;20097;-69
2023/10/06 01:41:20;;;;;;;14.40;4.25;;;14.30;99.90;;;;;;5076547;28;19973;-69
2023/10/06 01:43:47;;;;;;;8.50;4.18;;;14.30;99.90;;;;;;5076746;28;20097;-69
2023/10/06 01:46:14;;;;;;;10.63;4.18;;;14.30;99.90;;;;;;5075835;28;20055;-70
2023/10/06 01:48:41;;;;;;;11.18;4.88;;;14.40;99.90;;;;;;5076302;28;20131;-70
2023/10/06 01:51:13;;;;;;;12.18;4.28;;;14.40;99.90;;;;;;5075489;28;20073;-69
2023/10/06 01:53:41;;;;;;;8.45;4.68;;;14.40;99.90;;;;;;5076556;28;20498;-69
2023/10/06 01:56:08;;;;;;;10.82;4.38;;;14.50;99.90;;;;;;5072370;28;20048;-69
2023/10/06 01:58:39;;;;;;;16.38;5.28;;;14.50;99.90;;;;;;5093583;28;20101;-70
2023/10/06 02:01:09;;;;;;;12.82;4.60;;;14.50;99.90;;;;;;5076145;28;20109;-68
2023/10/06 02:03:41;;;;;;;13.13;5.53;;;14.50;99.90;;;;;;5076229;28;20451;-69
2023/10/06 02:06:15;;;;;;;9.13;4.75;;;14.50;99.90;;;;;;5075598;28;20101;-69
2023/10/06 02:08:49;;;;;;;11.30;4.03;;;14.50;99.90;;;;;;5076096;28;20074;-69
2023/10/06 02:11:16;;;;;;;13.40;5.13;;;14.60;99.90;;;;;;5093659;28;20372;-70
2023/10/06 02:13:45;;;;;;;15.13;5.85;;;14.60;99.90;;;;;;5075530;28;20443;-69
2023/10/06 02:16:11;;;;;;;11.48;4.90;;;14.60;99.90;;;;;;5076030;28;20051;-68
2023/10/06 02:18:40;;;;;;;13.45;5.40;;;14.60;99.90;;;;;;5093999;28;20063;-69
2023/10/06 02:21:11;;;;;;;16.35;5.53;;;14.60;99.90;;;;;;5092223;28;20389;-69
2023/10/06 02:23:40;;;;;;;17.75;5.72;;;14.60;99.90;;;;;;5075820;28;20109;-69
2023/10/06 02:26:09;;;;;;;16.20;5.65;;;14.60;99.90;;;;;;5075829;28;20051;-69
2023/10/06 02:28:43;;;;;;;12.73;5.03;;;14.60;99.90;;;;;;5088745;28;20411;-69
2023/10/06 02:31:12;;;;;;;14.48;5.65;;;14.60;99.90;;;;;;5093619;28;20131;-69
2023/10/06 02:33:40;;;;;;;14.15;5.63;;;14.60;99.90;;;;;;5075125;28;20495;-69
2023/10/06 02:36:16;;;;;;;11.10;5.28;;;14.60;99.90;;;;;;5071677;28;20063;-69
2023/10/06 02:38:46;;;;;;;15.98;6.15;;;14.60;99.90;;;;;;5075625;28;20059;-70
2023/10/06 02:41:19;;;;;;;10.93;5.63;;;14.60;99.90;;;;;;5074857;28;20047;-70
2023/10/06 02:43:50;;;;;;;16.23;6.22;;;14.50;99.90;;;;;;5075495;28;20054;-69
2023/10/06 02:46:21;;;;;;;17.42;6.05;;;14.50;99.90;;;;;;5075484;28;20051;-70
2023/10/06 02:48:51;;;;;;;17.80;6.88;;;14.50;99.90;;;;;;5074889;28;20055;-70
2023/10/06 02:51:28;;;;;;;13.52;5.85;;;14.40;99.90;;;;;;5093064;28;20046;-70
2023/10/06 02:54:13;;;;;;;12.95;5.85;;;14.40;99.90;;;;;;5075303;28;20075;-69
2023/10/06 02:56:40;;;;;;;16.42;6.43;;;14.30;99.90;;;;;;5074695;28;20062;-69
2023/10/06 02:59:20;;;;;;;14.55;5.60;;;14.30;99.90;;;;;;5088719;28;20040;-69
2023/10/06 03:01:55;;;;;;;14.20;5.63;;;14.20;99.90;;;;;;5074527;28;20480;-69
2023/10/06 03:04:25;;;;;;;11.90;5.40;;;14.30;99.90;;;;;;5075133;28;20134;-69
2023/10/06 03:06:54;;;;;;;15.68;6.85;;;14.30;99.90;;;;;;5075015;28;20068;-69
2023/10/06 03:09:27;;;;;;;10.93;5.43;;;14.30;99.90;;;;;;5074322;28;20052;-69
2023/10/06 03:11:58;;;;;;;11.48;5.78;;;14.30;99.90;;;;;;5074727;28;20044;-69
2023/10/06 03:14:37;;;;;;;14.57;6.07;;;14.30;99.90;;;;;;5092699;28;20059;-69
2023/10/06 03:17:09;;;;;;;13.90;6.03;;;14.30;99.90;;;;;;5072694;28;20054;-70
2023/10/06 03:19:37;;;;;;;18.02;6.50;;;14.30;99.90;;;;;;5074570;28;20056;-69
2023/10/06 03:22:07;;;;;;;18.52;6.63;;;14.30;99.90;;;;;;5092564;28;20121;-70
2023/10/06 03:24:40;;;;;;;19.70;6.97;;;14.30;99.90;;;;;;5074166;28;20135;-69
2023/10/06 03:27:12;;;;;;;14.98;6.60;;;14.30;99.90;;;;;;5074692;28;20142;-69
2023/10/06 03:29:53;;;;;;;13.27;7.00;;;14.30;99.90;;;;;;5074040;28;20054;-70
2023/10/06 03:32:32;;;;;;;18.75;7.53;;;14.20;99.90;;;;;;5072881;28;20052;-69
2023/10/06 03:35:11;;;;;;;14.35;6.68;;;14.20;99.90;;;;;;5074309;28;20061;-69
2023/10/06 03:37:51;;;;;;;13.45;6.82;;;14.20;99.90;;;;;;5074053;28;20101;-69
2023/10/06 03:40:22;;;;;;;16.10;7.50;;;14.20;99.90;;;;;;5074577;28;20093;-69
2023/10/06 03:42:50;;;;;;;11.45;6.60;;;14.20;99.90;;;;;;5074465;28;20043;-69
2023/10/06 03:45:26;;;;;;;15.23;7.90;;;14.20;99.90;;;;;;5073555;28;20055;-69
2023/10/06 03:48:08;;;;;;;18.27;8.15;;;14.20;99.90;;;;;;5074307;28;20403;-69
2023/10/06 03:50:38;;;;;;;17.52;7.90;;;14.20;99.90;;;;;;5074256;28;20422;-69
2023/10/06 03:53:07;;;;;;;17.92;7.57;;;14.20;99.90;;;;;;5074050;28;20071;-69
2023/10/06 03:55:39;;;;;;;15.93;8.15;;;14.20;99.90;;;;;;5074314;28;20105;-69
2023/10/06 03:58:06;;;;;;;14.98;7.60;;;14.10;99.90;;;;;;5073823;28;20507;-69
2023/10/06 04:00:38;;;;;;;20.42;8.50;;;14.10;99.90;;;;;;5074205;28;20404;-69
2023/10/06 04:03:09;;;;;;;18.10;8.60;;;14.10;99.90;;;;;;5074307;28;20044;-68
2023/10/06 04:05:37;;;;;;;;;;;14.10;99.90;;;;;;5070222;28;20120;-69
2023/10/06 04:08:08;;;;;;;18.02;7.97;;;14.10;99.90;;;;;;5074063;28;19968;-68
2023/10/06 04:10:36;;;;;;;15.00;7.90;;;14.10;99.90;;;;;;5074070;28;20062;-68
2023/10/06 04:13:05;;;;;;;18.70;8.88;;;14.10;99.90;;;;;;5073335;28;20101;-68
2023/10/06 04:15:32;;;;;;;17.77;8.95;;;14.10;99.90;;;;;;5073986;28;20052;-69
2023/10/06 04:17:59;;;;;;;15.85;8.52;;;14.10;99.90;;;;;;5074136;28;20040;-69
2023/10/06 04:20:27;;;;;;;18.20;8.57;;;14.10;99.90;;;;;;5091257;28;20089;-68
2023/10/06 04:22:54;;;;;;;15.50;7.50;;;14.10;99.90;;;;;;5074007;28;20127;-69
2023/10/06 04:25:22;;;;;;;14.55;8.57;;;14.10;99.90;;;;;;5092041;28;20075;-68
2023/10/06 04:27:49;;;;;;;20.60;8.73;;;14.10;99.90;;;;;;5073258;28;20496;-68
2023/10/06 04:30:18;;;;;;;17.80;9.38;;;14.10;99.90;;;;;;5069801;28;20067;-69
2023/10/06 04:32:45;;;;;;;14.20;8.75;;;14.10;99.90;;;;;;5073582;28;20495;-68
2023/10/06 04:35:19;;;;;;;22.70;8.70;;;14.10;99.90;;;;;;5073517;28;20048;-68
2023/10/06 04:37:49;;;;;;;15.93;8.20;;;14.10;99.90;;;;;;5073606;28;20051;-69
2023/10/06 04:40:20;;;;;;;17.63;8.40;;;14.10;99.90;;;;;;5073342;28;20101;-69
2023/10/06 04:42:47;;;;;;;19.20;8.00;;;14.10;99.90;;;;;;5073898;28;20570;-68
2023/10/06 04:45:14;;;;;;;18.48;7.63;;;14.10;99.90;;;;;;5077282;28;20064;-69
2023/10/06 04:47:41;;;;;;;17.88;8.52;;;14.10;99.90;;;;;;5076831;28;20044;-69
2023/10/06 04:50:10;;;;;;;18.27;7.90;;;14.20;99.90;;;;;;5073235;28;20445;-69
2023/10/06 04:52:37;;;;;;;15.40;7.35;;;14.10;99.90;;;;;;5077511;28;20054;-69
2023/10/06 04:55:11;;;;;;;14.18;7.95;;;14.10;99.90;;;;;;5077122;28;20048;-69
2023/10/06 04:57:39;;;;;;;16.40;7.57;;;14.10;99.90;;;;;;5075061;28;20047;-69
2023/10/06 05:00:13;;;;;;;15.55;6.78;;;14.10;99.90;;;;;;5077235;28;20073;-70
2023/10/06 05:02:42;;;;;;;14.38;7.65;;;14.10;99.90;;;;;;5076829;28;20056;-70
2023/10/06 05:05:11;;;;;;;17.38;7.25;;;14.10;99.90;;;;;;5073178;28;20044;-70
2023/10/06 05:07:38;;;;;;;12.80;7.28;;;14.20;99.90;;;;;;5076849;28;20051;-69
2023/10/06 05:10:09;;;;;;;17.17;7.38;;;14.20;99.90;;;;;;5076244;28;20079;-69
2023/10/06 05:12:38;;;;;;;22.42;7.45;;;14.10;99.90;;;;;;5072320;28;20044;-69
2023/10/06 05:15:09;;;;;;;14.05;7.38;;;14.10;99.90;;;;;;5076415;28;20044;-69
2023/10/06 05:17:37;;;;;;;19.48;7.18;;;14.20;99.90;;;;;;5077064;28;20039;-69
2023/10/06 05:20:04;;;;;;;17.83;6.97;;;14.10;99.90;;;;;;5059398;28;20519;-69
2023/10/06 05:22:31;;;;;;;15.65;6.60;;;14.20;99.90;;;;;;5063626;28;20064;-70
2023/10/06 05:25:01;;;;;;;16.80;6.82;;;14.20;99.90;;;;;;5071409;28;20060;-70
2023/10/06 05:27:29;;;;;;;15.07;6.90;;;14.20;99.90;;;;;;5091588;28;20067;-69
2023/10/06 05:29:57;;;;;;;14.00;7.13;;;14.10;99.90;;;;;;5070928;28;20072;-70
2023/10/06 05:32:24;;;;;;;13.60;7.45;;;14.10;99.90;;;;;;5074226;28;20385;-70
2023/10/06 05:34:51;;;;;;;18.00;6.75;;;14.00;99.90;;;;;;5070656;28;20106;-69
2023/10/06 05:37:18;;;;;;;17.90;7.25;;;14.00;99.90;;;;;;5069731;28;20128;-69
2023/10/06 05:39:46;;;;;;;15.20;6.75;;;13.90;99.90;;;;;;5072647;28;20407;-68
2023/10/06 05:42:14;;;;;;;15.55;7.63;;;13.90;99.90;;;;;;5074332;28;20116;-69
2023/10/06 05:44:42;;;;;;;13.98;6.78;;;14.00;99.90;;;;;;5066470;28;20515;-68
2023/10/06 05:47:09;;;;;;;17.42;7.25;;;14.00;99.90;;;;;;5073466;28;20047;-69
2023/10/06 05:49:38;;;;;;;16.50;7.13;;;13.90;99.90;;;;;;5072590;28;20055;-69
2023/10/06 05:52:10;;;;;;;18.13;8.00;;;14.00;99.90;;;;;;5056598;28;20444;-68
2023/10/06 05:54:38;;;;;;;13.48;6.60;;;14.00;99.90;;;;;;5071119;28;20051;-69
2023/10/06 05:57:05;;;;;;;19.63;7.65;;;14.00;99.90;;;;;;5072724;28;20056;-68
2023/10/06 05:59:36;;;;;;;13.57;6.70;;;13.90;99.90;;;;;;5073494;28;20519;-69
2023/10/06 06:02:05;;;;;;;13.18;6.60;;;13.90;99.90;;;;;;5072001;28;20165;-69
2023/10/06 06:04:34;;;;;;;16.58;7.30;;;14.00;99.90;;;;;;5071309;28;20052;-66
2023/10/06 06:07:02;;;;;;;17.88;7.00;;;14.00;99.90;;;;;;5073686;28;20048;-68
2023/10/06 06:09:30;;;;;;;12.55;5.97;;;14.10;99.90;;;;;;5071984;28;20059;-69
2023/10/06 06:11:58;;;;;;;11.40;6.38;;;14.10;99.90;;;;;;5072576;28;20077;-69
2023/10/06 06:14:26;;;;;;;14.18;7.07;;;14.10;99.90;;;;;;5071243;28;20486;-69
2023/10/06 06:16:55;;;;;;;13.02;6.88;;;14.20;99.90;;;;;;5073068;28;20051;-69
2023/10/06 06:19:23;;;;;;;18.50;7.22;;;14.20;99.90;;;;;;5068298;28;20063;-69
2023/10/06 06:21:50;;;;;;;21.00;7.47;;;14.20;99.90;;;;;;5067012;28;20075;-70
2023/10/06 06:24:21;;;;;;;18.02;6.72;;;14.20;99.90;;;;;;5071654;28;20455;-68
2023/10/06 06:26:49;;;;;;;15.75;6.22;;;14.30;99.90;;;;;;5091271;28;20125;-69
2023/10/06 06:29:17;;;;;;;15.10;6.57;;;14.30;99.90;;;;;;5070713;28;20114;-69
2023/10/06 06:31:45;;;;;;;12.98;6.88;;;14.30;99.90;;;;;;5070383;28;20125;-69
2023/10/06 06:34:11;;;;;;;16.40;6.97;;;14.40;99.90;;;;;;5085338;28;20492;-68
2023/10/06 06:36:40;;;;;;;14.23;7.03;;;14.40;99.90;;;;;;5091206;28;20040;-69
2023/10/06 06:39:10;;;;;;;9.70;6.00;;;13.90;99.90;;;;;;5067652;28;20047;-68
2023/10/06 06:41:37;;;;;;;21.85;8.00;;;14.40;99.90;;;;;;5088738;28;20518;-68
2023/10/06 06:44:05;;;;;;;14.45;7.00;;;14.30;99.90;;;;;;5064628;28;20514;-68
2023/10/06 06:46:32;;;;;;;18.90;7.78;;;14.30;99.90;;;;;;5068404;28;20702;-68
2023/10/06 06:49:00;;;;;;;14.65;7.13;;;14.40;99.90;;;;;;5065545;28;20059;-68
2023/10/06 06:51:28;;;;;;;17.05;7.20;;;14.30;99.90;;;;;;5072241;28;20051;-69
2023/10/06 06:53:57;;;;;;;14.57;6.47;;;14.40;99.90;;;;;;5066315;28;20044;-68
2023/10/06 06:56:24;;;;;;;16.95;6.30;;;14.40;99.90;;;;;;5087739;28;20747;-68
2023/10/06 06:58:51;;;;;;;14.52;7.80;;;14.40;99.90;;;;;;5087504;28;20048;-69
2023/10/06 07:01:19;;;;;;;13.45;7.00;;;14.50;99.90;;;;;;5069102;28;20056;-69
2023/10/06 07:03:46;;;;;;;12.32;6.85;;;14.50;99.90;;;;;;5071001;28;20105;-68
2023/10/06 07:06:16;;;;;;;16.40;7.85;;;14.50;99.90;;;;;;5067244;28;20048;-68
2023/10/06 07:08:43;;;;;;;17.90;8.18;;;14.60;99.90;;;;;;5067876;28;20059;-68
2023/10/06 07:11:12;;;;;;;11.63;6.63;;;14.70;99.90;;;;;;5071008;28;20044;-68
2023/10/06 07:13:42;;;;;;;11.63;6.40;;;14.80;99.90;;;;;;5067657;28;20056;-68
2023/10/06 07:16:09;;;;;;;13.63;6.55;;;14.80;99.90;;;;;;5084924;28;20091;-69
2023/10/06 07:18:37;;;;;;;15.75;7.40;;;14.80;99.90;;;;;;5088912;28;20125;-68
2023/10/06 07:21:09;;;;;;;13.57;7.00;;;14.90;99.90;;;;;;5067751;28;20048;-68
2023/10/06 07:23:37;;;;;;;12.43;6.32;;;14.90;99.90;;;;;;5071117;28;20066;-68
2023/10/06 07:26:11;;;;;;;16.33;6.85;;;14.90;99.90;;;;;;5070560;28;20122;-69
2023/10/06 07:28:39;;;;;;;12.85;6.78;;;14.80;99.90;;;;;;5067519;28;20508;-68
2023/10/06 07:31:11;;;;;;;15.23;7.15;;;14.90;99.90;;;;;;5066972;28;20036;-68
2023/10/06 07:33:38;;;;;;;15.27;7.70;;;14.90;99.90;;;;;;5069004;28;20105;-68
2023/10/06 07:36:13;;;;;;;12.40;7.07;;;15.00;99.90;;;;;;5068877;28;20060;-68
2023/10/06 07:38:40;;;;;;;13.25;6.45;;;15.20;99.90;;;;;;5085186;28;20044;-67
2023/10/06 07:41:07;;;;;;;14.18;6.45;;;15.30;99.90;;;;;;5071214;28;20048;-67
2023/10/06 07:43:36;;;;;;;17.17;6.35;;;15.30;99.90;;;;;;5068312;28;20048;-68
2023/10/06 07:46:07;;;;;;;14.85;6.65;;;15.30;99.90;;;;;;5068407;28;20051;-68
2023/10/06 07:48:37;;;;;;;14.90;6.80;;;15.20;99.90;;;;;;5071670;28;20056;-68
2023/10/06 07:51:06;;;;;;;17.40;7.43;;;15.10;99.90;;;;;;5068291;28;20083;-68
2023/10/06 07:53:35;;;;;;;18.63;7.03;;;15.10;99.90;;;;;;5065908;28;20546;-69
2023/10/06 07:56:07;;;;;;;15.88;7.50;;;15.00;99.90;;;;;;5069433;28;20086;-68
2023/10/06 07:58:37;;;;;;;15.50;7.72;;;15.00;99.90;;;;;;5067893;28;20593;-67
2023/10/06 08:01:07;;;;;;;12.95;6.95;;;15.00;99.90;;;;;;5068204;28;20511;-68
2023/10/06 08:03:37;;;;;;;13.98;7.63;;;15.00;99.90;;;;;;5069165;28;20062;-69
2023/10/06 08:06:05;;;;;;;16.10;8.10;;;15.00;99.90;;;;;;5063874;28;20048;-69
2023/10/06 08:08:33;;;;;;;19.85;8.00;;;15.10;99.90;;;;;;5067613;28;20131;-68
2023/10/06 08:11:01;;;;;;;13.43;7.28;;;15.20;99.90;;;;;;5070810;28;20051;-68
2023/10/06 08:13:30;;;;;;;12.55;7.03;;;15.30;99.90;;;;;;5068239;28;20142;-68
2023/10/06 08:15:59;;;;;;;15.48;7.95;;;15.40;99.90;;;;;;5070378;28;20048;-69
2023/10/06 08:18:28;;;;;;;14.57;8.13;;;15.50;99.90;;;;;;5067547;28;20060;-68
2023/10/06 08:20:55;;;;;;;12.98;7.43;;;15.60;99.90;;;;;;5071167;28;20087;-68
2023/10/06 08:23:22;;;;;;;16.00;7.45;;;15.70;99.90;;;;;;5074463;28;20044;-67
2023/10/06 08:25:52;;;;;;;16.05;7.22;;;15.80;99.90;;;;;;5072343;28;20074;-67
2023/10/06 08:28:19;;;;;;;14.45;7.25;;;15.90;99.90;;;;;;5071147;28;20056;-68
2023/10/06 08:30:46;;;;;;;21.20;7.07;;;16.00;99.90;;;;;;5073606;28;20056;-68
2023/10/06 08:33:14;;;;;;;14.32;6.72;;;16.00;99.90;;;;;;5087114;28;20075;-68
2023/10/06 08:35:41;;;;;;;18.60;7.65;;;16.00;99.90;;;;;;5072969;28;20105;-68
2023/10/06 08:38:09;;;;;;;15.55;6.28;;;16.10;99.90;;;;;;5073423;28;20128;-68
2023/10/06 08:40:41;;;;;;;14.82;6.63;;;16.20;99.90;;;;;;5072028;28;20145;-67
2023/10/06 08:43:09;;;;;;;16.88;7.10;;;16.50;99.90;;;;;;5073940;28;20040;-67
2023/10/06 08:45:41;;;;;;;16.60;6.18;;;16.60;99.90;;;;;;5069532;28;20503;-67
2023/10/06 08:48:10;;;;;;;12.95;6.20;;;16.70;99.90;;;;;;5071422;28;20056;-68
2023/10/06 08:50:41;;;;;;;14.10;6.78;;;16.90;99.90;;;;;;5087277;28;20095;-68
2023/10/06 08:53:13;;;;;;;16.65;6.30;;;16.90;99.90;;;;;;5074383;28;20401;-67
2023/10/06 08:55:41;;;;;;;12.02;5.22;;;17.20;99.90;;;;;;5071805;28;20056;-67
2023/10/06 08:58:08;;;;;;;13.57;5.72;;;17.60;99.90;;;;;;5072414;28;20052;-68
2023/10/06 09:00:37;;;;;;;11.95;6.03;;;17.70;99.90;;;;;;5074010;28;20124;-69
2023/10/06 09:03:07;;;;;;;12.98;5.93;;;17.70;99.90;;;;;;5068563;28;20055;-68
2023/10/06 09:05:36;;;;;;;14.52;6.05;;;17.70;99.90;;;;;;5072236;28;20090;-69
2023/10/06 09:08:07;;;;;;;24.45;6.38;;;17.70;99.90;;;;;;5070217;28;20040;-68
2023/10/06 09:10:34;;;;;;;;;;;17.50;99.90;;;;;;5074325;28;20136;-68
2023/10/06 09:13:04;;;;;;;11.20;5.30;;;17.60;99.90;;;;;;5073422;28;19927;-69
2023/10/06 09:15:31;;;;;;;12.70;4.77;;;17.40;99.90;;;;;;5071647;28;20095;-69
2023/10/06 09:17:59;;;;;;;9.98;4.82;;;17.40;99.90;;;;;;5072760;28;20676;-68
2023/10/06 09:20:31;;;;;;;14.05;5.10;;;17.40;99.90;;;;;;5071922;28;20091;-69
2023/10/06 09:23:00;;;;;;;12.45;5.20;;;17.40;99.90;;;;;;5069853;28;20106;-68
2023/10/06 09:25:31;;;;;;;11.75;5.18;;;17.40;99.90;;;;;;5071002;28;20093;-68
2023/10/06 09:28:03;;;;;;;10.55;4.18;;;17.50;99.90;;;;;;5070477;28;20060;-67
2023/10/06 09:30:30;;;;;;;15.30;4.47;;;17.50;99.90;;;;;;5074513;28;20090;-68
2023/10/06 09:33:05;;;;;;;13.50;4.97;;;17.50;99.90;;;;;;5075142;28;20058;-68
2023/10/06 09:35:32;;;;;;;13.10;5.00;;;17.70;99.90;;;;;;5074391;28;20048;-67
2023/10/06 09:38:15;;;;;;;14.15;4.80;;;17.70;99.90;;;;;;5076539;28;20055;-68
2023/10/06 09:40:45;;;;;;;10.70;4.57;;;17.80;99.90;;;;;;5074023;28;20044;-68
2023/10/06 09:43:16;;;;;;;12.38;4.70;;;18.00;99.90;;;;;;5094113;28;20044;-68
2023/10/06 09:45:44;;;;;;;12.30;5.15;;;18.10;99.90;;;;;;5076273;28;20510;-68
2023/10/06 09:48:17;;;;;;;10.73;4.57;;;18.20;99.90;;;;;;5076544;28;20132;-68
2023/10/06 09:50:45;;;;;;;11.38;5.45;;;18.20;99.90;;;;;;5075984;28;20146;-68
2023/10/06 09:53:13;;;;;;;13.93;5.10;;;18.30;99.90;;;;;;5076337;28;20487;-68
2023/10/06 09:55:41;;;;;;;16.92;5.47;;;18.40;99.90;;;;;;5076350;28;20496;-68
2023/10/06 09:58:10;;;;;;;12.95;4.65;;;18.60;99.90;;;;;;5075477;28;20127;-68
2023/10/06 10:00:40;;;;;;;14.57;4.68;;;18.70;99.90;;;;;;5076314;28;20098;-68
2023/10/06 10:03:12;;;;;;;;;;;18.80;99.90;;;;;;5076592;28;20399;-68
2023/10/06 10:05:40;;;;;;;13.60;4.85;;;18.60;99.90;;;;;;5075696;28;20453;-68
2023/10/06 10:08:07;;;;;;;12.60;4.57;;;18.70;99.90;;;;;;5076259;28;20056;-67
2023/10/06 10:10:36;;;;;;;12.82;4.18;;;18.70;99.90;;;;;;5075568;28;20415;-67
2023/10/06 10:13:31;;;;;;;16.08;4.90;;;18.90;99.90;;;;;;5075743;28;20044;-68
2023/10/06 10:16:25;;;;;;;12.80;5.10;;;18.90;99.90;;;;;;5072802;28;20082;-67
2023/10/06 10:18:59;;;;;;;10.45;4.38;;;18.70;99.90;;;;;;5093433;28;20044;-69
2023/10/06 10:21:27;;;;;;;14.73;4.93;;;18.90;99.90;;;;;;5093696;28;20051;-68
2023/10/06 10:23:56;;;;;;;13.77;4.85;;;18.90;99.90;;;;;;5075668;28;20042;-68
2023/10/06 10:26:26;;;;;;;13.40;4.50;;;18.90;99.90;;;;;;5071508;28;20079;-68
2023/10/06 10:29:32;;;;;;;14.05;4.90;;;19.00;99.90;;;;;;5075881;28;20048;-68
2023/10/06 10:32:11;;;;;;;16.00;5.32;;;19.20;99.90;;;;;;5075106;28;20052;-68
2023/10/06 10:35:06;;;;;;;11.98;4.60;;;19.40;99.90;;;;;;5071705;28;20055;-68
2023/10/06 10:37:34;;;;;;;15.85;5.22;;;19.50;99.90;;;;;;5072720;28;20076;-68
2023/10/06 10:40:01;;;;;;;11.20;5.00;;;19.60;99.90;;;;;;5075063;28;20500;-68
2023/10/06 10:42:39;;;;;;;9.60;4.30;;;19.70;99.90;;;;;;5074822;28;20097;-68
2023/10/06 10:45:31;;;;;;;10.45;3.78;;;20.00;99.90;;;;;;5073599;28;20488;-69
2023/10/06 10:47:59;;;;;;;15.35;4.50;;;20.00;99.90;;;;;;5090789;28;20063;-69
2023/10/06 10:50:44;;;;;;;14.18;4.75;;;20.00;99.90;;;;;;5075433;28;20060;-68
2023/10/06 10:53:12;;;;;;;11.18;4.22;;;20.00;99.90;;;;;;5091199;28;20493;-68
2023/10/06 10:55:39;;;;;;;12.10;3.85;;;20.00;99.90;;;;;;5075487;28;20056;-68
2023/10/06 10:58:09;;;;;;;13.38;4.03;;;20.30;99.90;;;;;;5075076;28;20560;-68
2023/10/06 11:00:37;;;;;;;14.95;4.30;;;20.70;99.90;;;;;;5092613;28;20052;-68
2023/10/06 11:03:05;;;;;;;13.73;4.15;;;21.10;99.90;;;;;;5074728;28;20484;-68
2023/10/06 11:05:33;;;;;;;9.98;3.83;;;21.50;99.90;;;;;;5075241;28;20056;-69
2023/10/06 11:08:02;;;;;;;10.85;3.45;;;22.00;99.90;;;;;;5092427;28;20040;-68
2023/10/06 11:10:30;;;;;;;11.70;3.63;;;22.50;99.90;;;;;;5072083;28;20048;-68
2023/10/06 11:13:15;;;;;;;10.00;3.85;;;22.70;99.90;;;;;;5075181;28;20476;-67
2023/10/06 11:15:43;;;;;;;12.82;3.67;;;22.30;99.90;;;;;;5092408;28;20143;-69
2023/10/06 11:18:13;;;;;;;12.20;4.40;;;22.40;99.90;;;;;;5074951;28;20075;-68
2023/10/06 11:20:40;;;;;;;16.05;4.40;;;22.40;99.90;;;;;;5074554;28;20088;-68
2023/10/06 11:23:08;;;;;;;10.60;3.35;;;22.20;99.90;;;;;;5073933;28;20044;-68
2023/10/06 11:25:46;;;;;;;11.77;3.25;;;22.40;99.90;;;;;;5074733;28;20416;-68
2023/10/06 11:28:14;;;;;;;12.98;3.72;;;22.60;99.90;;;;;;5092038;28;20040;-67
2023/10/06 11:30:43;;;;;;;16.65;4.07;;;22.40;99.90;;;;;;5074442;28;20488;-68
2023/10/06 11:33:13;;;;;;;12.18;4.28;;;22.30;99.90;;;;;;5070939;28;20039;-68
2023/10/06 11:35:41;;;;;;;26.02;4.85;;;22.40;99.90;;;;;;5074000;28;20044;-68
2023/10/06 11:38:11;;;;;;;11.52;4.07;;;22.40;99.90;;;;;;5074455;28;20044;-68
2023/10/06 11:40:40;;;;;;;7.97;3.63;;;22.10;99.90;;;;;;5070821;28;20048;-67
2023/10/06 11:43:12;;;;;;;9.50;2.85;;;21.90;99.90;;;;;;5073934;28;20385;-67
2023/10/06 11:45:41;;;;;;;11.77;3.13;;;21.80;99.90;;;;;;5074545;28;20093;-68
2023/10/06 11:51:06;;;;;;;17.00;3.40;;;21.60;99.90;;;;;;5146512;27;1260366;-68
2023/10/06 11:53:33;;;;;;;13.43;3.28;;;21.50;99.90;;;;;;5171315;27;20078;-68
2023/10/06 11:56:07;;;;;;;15.73;3.65;;;22.10;99.90;;;;;;5152279;27;20137;-68
2023/10/06 11:58:36;;;;;;;10.95;3.67;;;22.50;99.90;;;;;;5152480;27;20042;-68
2023/10/06 12:01:03;;;;;;;9.02;3.30;;;22.50;99.90;;;;;;5152846;27;20066;-68
2023/10/06 12:03:38;;;;;;;11.70;3.92;;;22.20;99.90;;;;;;5151637;27;20050;-67
2023/10/06 12:06:11;;;;;;;14.25;4.05;;;22.60;99.90;;;;;;5152576;27;20050;-67
2023/10/06 12:08:42;;;;;;;16.00;3.20;;;22.20;99.90;;;;;;5169345;27;20043;-67
2023/10/06 12:11:12;;;;;;;11.48;3.65;;;22.60;99.90;;;;;;5170795;27;20448;-67
2023/10/06 12:13:39;;;;;;;13.83;3.43;;;23.00;99.90;;;;;;5152527;27;20054;-68
2023/10/06 12:16:13;;;;;;;7.63;3.35;;;24.00;99.90;;;;;;5170703;27;20068;-68
2023/10/06 12:18:43;;;;;;;11.35;3.30;;;24.40;99.90;;;;;;5170247;27;20470;-68
2023/10/06 12:21:13;;;;;;;9.45;3.10;;;25.20;99.90;;;;;;5170956;27;20494;-68
2023/10/06 12:23:40;;;;;;;15.13;3.25;;;26.20;99.90;;;;;;5132842;27;20544;-68
2023/10/06 12:26:07;;;;;;;11.27;3.63;;;26.80;99.90;;;;;;5131901;27;20056;-68
2023/10/06 12:28:34;;;;;;;18.30;5.40;;;27.10;99.90;;;;;;5132512;27;20045;-68
2023/10/06 12:31:02;;;;;;;8.73;3.05;;;26.80;99.90;;;;;;5132338;27;20483;-68
2023/10/06 12:33:29;;;;;;;15.35;3.70;;;26.20;99.90;;;;;;5150423;27;20096;-68
2023/10/06 12:35:56;;;;;;;10.88;3.17;;;25.50;99.90;;;;;;5132239;27;20522;-68
2023/10/06 12:38:26;;;;;;;10.65;3.33;;;25.10;99.90;;;;;;5131793;27;20513;-68
2023/10/06 12:40:53;;;;;;;21.35;5.50;;;24.80;99.90;;;;;;5132374;27;20043;-68
2023/10/06 12:43:20;;;;;;;13.05;3.47;;;24.30;99.90;;;;;;5132182;27;20055;-68
2023/10/06 12:45:47;;;;;;;9.35;2.88;;;23.60;99.90;;;;;;5131724;27;20050;-68
2023/10/06 12:48:14;;;;;;;7.78;2.90;;;22.90;99.90;;;;;;5132213;27;20051;-67
2023/10/06 12:50:42;;;;;;;11.27;3.40;;;22.30;99.90;;;;;;5131870;27;20054;-68
2023/10/06 12:53:10;;;;;;;14.05;3.45;;;22.10;99.90;;;;;;5131517;27;20095;-68
2023/10/06 12:55:41;;;;;;;13.23;2.97;;;21.70;99.90;;;;;;5150590;27;20043;-67